Brandon, North Carolina
Current Conditions -  °F | °C
As of 7:35 PM on Friday 21 Nov 2014 (Local Time) from KGEV Reporting Station
Clear Clear  
Wind Chill: 32°   Ceiling: Unl
Heat Index: 32°   Visibility: 10mi
Dew Point: -4°   Wind: 3mph
Humidity: 21%   Direction: 240°WSW
Pressure: 30.4"   Gusts: NA
Location:  36.524°N, 81.538°W
Report Text: KGEV 220035Z AUTO 24003KT 10SM CLR 00/M20 A3040 RMK AO2 T00011200
Loading
Personal Weather Stations






























Interactive Weather Map New forecast layout! Learn more

10-Day Weather Forecast

Advertisements
Track Severe Weather on mobile